Inwood, Indiana
Current Conditions -  °F | °C
As of 8:15 AM on Thursday 18 Dec 2014 (Local Time) from KOXI Reporting Station
Overcast Overcast  
Wind Chill: 19°   Ceiling: 2100
Heat Index: 26°   Visibility: 10mi
Dew Point: 19°   Wind: 6mph
Humidity: 77%   Direction: 250°WSW
Pressure: 30.27"   Gusts: NA
Location:  41.3572°N, 86.3281°W
Report Text: KOXI 181315Z AUTO 25005KT 10SM OVC021 M04/M07 A3027 RMK AO1 T10361071
Loading
Personal Weather Stations






























Interactive Weather Map New forecast layout! Learn more

10-Day Weather Forecast

Advertisements
Track Severe Weather on mobile